Main page
METAR-TAF:

METAR-TAF

Airports :

Damascus, Syria

Damascus International Airport

latitude: 33-25N, longitude: 036-31E, elevation: 608 m

Current weather observation

The report was made 15 minutes ago, at 02:00 UTC
Wind 8 kt from the West/Southwest
Temperature 20°C
Humidity 60%
Pressure 1013 hPa
Visibility 10 km or more
no clouds below 1500 m and no cumulonimbus

METAR: OSDI 200200Z 24008KT CAVOK 20/12 Q1013

Time: 05:15 (02:15 UTC)

Forecast

The report was made 4 hours and 40 minutes ago, at 21:35 UTC
Forecast valid from 20 at 00 UTC to 21 at 06 UTC
Wind 3 kt from variable directions
Visibility 10 km or more
no clouds below 1500 m and no cumulonimbus
Temporary
between 20 and 9/ UTC
Wind 15 kt from the Southwest with gusts up to 25 kt
Visibility 10 km or more
Few clouds at a height of 3000 ft

TAF: OSDI 192135Z 2000/2106 VRB03KT CAVOK TEMPO 209/2018 22015G25KT 9999 FEW030

Weather observations and forecasts of more than 4000 airports (METAR and TAF reports).

The available stations are represented by yellow and red dots on the map.

Hover mouse over dot to see the name of the station.

Then click to see weather observations and forecasts.

To change the map : click on the green buttons with a black cross to zoom in, on the green button with a dash to zoom out, or on the green arrows for adjacent maps.


METAR-TAF: